createdAt,value
2022-08-27T00:30:14.147Z,0
2022-08-27T00:30:54.666Z,0
2022-08-27T00:31:35.642Z,0
2022-08-27T00:33:38.501Z,0
2022-08-27T00:34:19.885Z,0
2022-08-27T00:35:00.883Z,0
2022-08-27T00:35:41.854Z,0
2022-08-27T00:36:22.900Z,0
2022-08-27T00:40:28.817Z,0
2022-08-27T00:41:09.763Z,0
2022-08-27T00:41:50.791Z,0
2022-08-27T00:42:31.701Z,0
2022-08-27T00:43:12.689Z,0
2022-08-27T00:47:18.737Z,0
2022-08-27T00:47:59.725Z,0
2022-08-27T00:48:40.673Z,0
2022-08-27T00:49:21.631Z,0
2022-08-27T00:50:02.651Z,0
2022-08-27T00:54:49.531Z,0
2022-08-27T00:55:30.467Z,0
2022-08-27T00:56:11.506Z,0
2022-08-27T00:56:52.465Z,0
2022-08-27T01:00:58.253Z,0
2022-08-27T01:01:39.243Z,0
2022-08-27T01:02:20.293Z,0
2022-08-27T01:03:01.147Z,0
2022-08-27T01:03:42.215Z,0
2022-08-27T01:07:48.127Z,0
2022-08-27T01:08:29.066Z,0
2022-08-27T01:09:10.058Z,0
2022-08-27T01:09:51.020Z,0
2022-08-27T01:10:31.982Z,0
2022-08-27T01:11:13.008Z,0
2022-08-27T01:14:38.114Z,0
2022-08-27T01:15:20.160Z,0
2022-08-27T01:16:00.032Z,0
2022-08-27T01:16:41.039Z,0
2022-08-27T01:17:21.999Z,0
2022-08-27T01:18:02.964Z,0
2022-08-27T01:21:27.897Z,0
2022-08-27T01:22:08.843Z,0
2022-08-27T01:22:49.835Z,0
2022-08-27T01:23:30.859Z,0
2022-08-27T01:24:11.840Z,0
2022-08-27T01:24:52.775Z,0
2022-08-27T01:28:58.776Z,0
2022-08-27T01:29:39.726Z,0
2022-08-27T01:30:20.711Z,0
2022-08-27T01:31:01.729Z,0
2022-08-27T01:31:42.760Z,0
2022-08-27T01:35:48.657Z,0
2022-08-27T01:36:29.619Z,0
2022-08-27T01:37:10.590Z,0
2022-08-27T01:37:52.294Z,0
2022-08-27T01:38:32.576Z,0
2022-08-27T01:42:38.574Z,0
2022-08-27T01:43:19.565Z,0
2022-08-27T01:44:00.510Z,0
2022-08-27T01:44:41.528Z,0
2022-08-27T01:45:22.512Z,0
2022-08-27T01:49:28.458Z,0
2022-08-27T01:50:09.525Z,0
2022-08-27T01:50:50.484Z,0
2022-08-27T01:51:31.583Z,0
2022-08-27T01:52:12.540Z,0
2022-08-27T01:56:18.404Z,0
2022-08-27T01:56:59.364Z,0
2022-08-27T01:57:40.414Z,0
2022-08-27T01:58:21.205Z,0
2022-08-27T01:59:02.253Z,0
2022-08-27T02:03:08.164Z,0
2022-08-27T02:03:49.128Z,0
2022-08-27T02:04:30.107Z,0
2022-08-27T02:05:11.099Z,0
2022-08-27T02:05:52.063Z,0
2022-08-27T02:09:26.870Z,0
2022-08-27T02:10:07.354Z,0
2022-08-27T02:10:47.815Z,0
2022-08-27T02:16:11.746Z,0
2022-08-27T02:16:53.009Z,0
2022-08-27T02:17:32.693Z,0
2022-08-27T02:18:13.187Z,0
2022-08-27T02:18:53.688Z,0
2022-08-27T02:19:34.835Z,0
2022-08-27T02:20:55.884Z,0
2022-08-27T02:21:36.308Z,0
2022-08-27T02:29:01.627Z,0
2022-08-27T02:29:42.099Z,0
2022-08-27T02:30:22.613Z,0
2022-08-27T02:31:03.105Z,0
2022-08-27T02:31:43.557Z,0
2022-08-27T02:32:32.347Z,0
2022-08-27T02:33:04.464Z,0
2022-08-27T02:33:44.922Z,0
2022-08-27T02:34:25.447Z,0
2022-08-27T02:35:05.937Z,0
2022-08-27T02:35:46.408Z,0
2022-08-27T02:43:12.311Z,0
2022-08-27T02:43:52.354Z,0
2022-08-27T02:44:32.779Z,0
2022-08-27T02:45:13.250Z,0
2022-08-27T02:45:53.763Z,0
2022-08-27T02:46:34.228Z,0
2022-08-27T02:47:14.684Z,0
2022-08-27T02:47:55.168Z,0
2022-08-27T02:48:35.674Z,0
2022-08-27T02:49:16.131Z,0
2022-08-27T02:56:41.508Z,0
2022-08-27T02:57:21.969Z,0
2022-08-27T02:58:02.597Z,0
2022-08-27T02:58:42.935Z,0
2022-08-27T02:59:23.442Z,0
2022-08-27T03:00:03.937Z,0
2022-08-27T03:00:44.373Z,0
2022-08-27T03:01:24.891Z,0
2022-08-27T03:02:05.546Z,0
2022-08-27T03:02:45.888Z,0
2022-08-27T03:03:26.297Z,0
2022-08-27T03:10:51.566Z,0
2022-08-27T03:11:32.030Z,0
2022-08-27T03:12:12.519Z,0
2022-08-27T03:12:52.945Z,0
2022-08-27T03:13:33.433Z,0
2022-08-27T03:14:13.893Z,0
2022-08-27T03:14:54.426Z,0
2022-08-27T03:15:34.893Z,0
2022-08-27T03:16:15.431Z,0
2022-08-27T03:16:55.862Z,0
2022-08-27T03:17:36.327Z,0
2022-08-27T03:25:01.607Z,0
2022-08-27T03:25:42.100Z,0
2022-08-27T03:26:22.578Z,0
2022-08-27T03:27:03.092Z,0
2022-08-27T03:27:43.529Z,0
2022-08-27T03:28:24.118Z,0
2022-08-27T03:29:04.604Z,0
2022-08-27T03:29:45.074Z,0
2022-08-27T03:30:25.554Z,0
2022-08-27T03:31:06.121Z,0
2022-08-27T03:39:11.799Z,0
2022-08-27T03:39:52.319Z,0
2022-08-27T03:40:32.849Z,0
2022-08-27T03:41:13.252Z,0
2022-08-27T03:41:55.072Z,0
2022-08-27T03:42:34.213Z,0
2022-08-27T03:43:55.220Z,0
2022-08-27T03:44:35.707Z,0
2022-08-27T03:45:16.277Z,0
2022-08-27T03:52:41.566Z,0
2022-08-27T03:53:22.041Z,0
2022-08-27T03:54:02.550Z,0
2022-08-27T03:54:43.035Z,0
2022-08-27T03:55:23.473Z,0
2022-08-27T03:56:03.928Z,0
2022-08-27T03:56:44.418Z,0
2022-08-27T03:57:24.936Z,0
2022-08-27T03:58:05.409Z,0
2022-08-27T03:58:45.866Z,0
2022-08-27T03:59:26.364Z,0
2022-08-27T04:06:51.737Z,0
2022-08-27T04:07:32.226Z,0
2022-08-27T04:08:12.746Z,0
2022-08-27T04:08:53.232Z,0
2022-08-27T04:09:33.757Z,0
2022-08-27T04:10:14.250Z,0
2022-08-27T04:10:54.739Z,0
2022-08-27T04:11:35.225Z,0
2022-08-27T04:12:15.711Z,0
2022-08-27T04:12:56.205Z,0
2022-08-27T04:21:01.928Z,0
2022-08-27T04:21:42.417Z,0
2022-08-27T04:22:22.907Z,0
2022-08-27T04:23:03.423Z,0
2022-08-27T04:23:43.895Z,0
2022-08-27T04:24:24.381Z,0
2022-08-27T04:25:04.859Z,0
2022-08-27T04:25:45.337Z,0
2022-08-27T04:26:25.791Z,0
2022-08-27T04:27:06.256Z,0
2022-08-27T04:34:31.483Z,0
2022-08-27T04:35:11.977Z,0
2022-08-27T04:35:52.424Z,0
2022-08-27T04:36:32.935Z,0
2022-08-27T04:37:13.459Z,0
2022-08-27T04:37:53.958Z,0
2022-08-27T04:39:14.846Z,0
2022-08-27T04:39:55.381Z,0
2022-08-27T04:40:35.854Z,0
2022-08-27T04:41:16.235Z,0
2022-08-27T04:48:41.470Z,0
2022-08-27T04:49:21.949Z,0
2022-08-27T04:50:04.240Z,0
2022-08-27T04:50:42.957Z,0
2022-08-27T04:51:23.390Z,0
2022-08-27T04:52:03.856Z,0
2022-08-27T04:52:44.336Z,0
2022-08-27T04:53:24.823Z,0
2022-08-27T04:54:05.316Z,0
2022-08-27T04:57:46.304Z,0
2022-08-27T04:58:26.941Z,0
2022-08-27T04:59:07.425Z,0
2022-08-27T05:01:49.740Z,0
2022-08-27T05:02:30.558Z,0
2022-08-27T05:06:10.866Z,0
2022-08-27T05:06:51.396Z,0
2022-08-27T05:07:31.962Z,0
2022-08-27T05:11:46.246Z,0
2022-08-27T05:12:26.618Z,0
2022-08-27T05:13:07.112Z,0
2022-08-27T05:18:33.301Z,0
2022-08-27T05:19:11.517Z,0
2022-08-27T05:19:52.003Z,0
2022-08-27T05:20:32.501Z,0
2022-08-27T05:21:12.973Z,0
2022-08-27T05:21:53.507Z,0
2022-08-27T05:22:33.986Z,0
2022-08-27T05:23:14.422Z,0
2022-08-27T05:23:54.896Z,0
2022-08-27T05:24:35.393Z,0
2022-08-27T05:32:41.138Z,0
2022-08-27T05:33:21.666Z,0
2022-08-27T05:34:02.191Z,0
2022-08-27T05:34:42.658Z,0
2022-08-27T05:35:23.099Z,0
2022-08-27T05:36:03.570Z,0
2022-08-27T05:37:24.524Z,0
2022-08-27T05:38:05.008Z,0
2022-08-27T05:38:45.521Z,0
2022-08-27T05:46:11.002Z,0
2022-08-27T05:46:51.431Z,0
2022-08-27T05:47:31.908Z,0
2022-08-27T05:48:12.509Z,0
2022-08-27T05:48:52.847Z,0
2022-08-27T05:49:33.335Z,0
2022-08-27T05:50:13.824Z,0
2022-08-27T05:50:54.298Z,0
2022-08-27T05:51:34.810Z,0
2022-08-27T05:52:55.775Z,0
2022-08-27T06:32:32.420Z,0
2022-08-27T06:33:12.502Z,0
2022-08-27T06:33:52.978Z,0
2022-08-27T06:37:55.805Z,0
2022-08-27T06:38:36.343Z,0
2022-08-27T06:39:16.878Z,0
2022-08-27T06:39:57.227Z,0
2022-08-27T06:40:37.739Z,0
2022-08-27T06:41:23.373Z,0
2022-08-27T06:41:58.716Z,0
2022-08-27T06:42:39.294Z,0
2022-08-27T06:43:23.274Z,0
2022-08-27T06:44:00.246Z,0
2022-08-27T06:49:57.702Z,5
2022-08-27T06:50:38.133Z,5
2022-08-27T06:51:18.651Z,5
2022-08-27T06:54:00.644Z,5
2022-08-27T06:54:41.063Z,5
2022-08-27T06:55:21.604Z,0
2022-08-27T06:56:02.025Z,0
2022-08-27T06:56:42.533Z,5
2022-08-27T06:57:23.051Z,5
2022-08-27T06:58:03.603Z,5
2022-08-27T06:58:44.009Z,5
2022-08-27T06:59:24.471Z,5
2022-08-27T07:00:04.956Z,5
2022-08-27T07:00:48.858Z,5
2022-08-27T07:08:10.589Z,5
2022-08-27T07:08:53.450Z,5
2022-08-27T07:09:31.514Z,5
2022-08-27T07:10:11.936Z,5
2022-08-27T07:10:52.417Z,5
2022-08-27T07:11:32.842Z,5
2022-08-27T07:12:13.317Z,5
2022-08-27T07:12:53.854Z,5
2022-08-27T07:13:34.273Z,5
2022-08-27T07:14:55.256Z,5
2022-08-27T07:22:20.479Z,5
2022-08-27T07:23:00.910Z,5
2022-08-27T07:23:41.394Z,5
2022-08-27T07:24:21.887Z,5
2022-08-27T07:25:02.350Z,5
2022-08-27T07:25:42.771Z,5
2022-08-27T07:26:23.262Z,5
2022-08-27T07:27:03.815Z,5
2022-08-27T07:27:44.237Z,5
2022-08-27T07:28:24.981Z,5
2022-08-27T07:29:05.419Z,5
2022-08-27T07:36:30.641Z,5
2022-08-27T07:37:11.091Z,5
2022-08-27T07:37:51.563Z,5
2022-08-27T07:38:32.043Z,5
2022-08-27T07:39:12.523Z,5
2022-08-27T07:39:53.023Z,5
2022-08-27T07:40:33.556Z,5
2022-08-27T07:41:14.025Z,5
2022-08-27T07:41:54.549Z,5
2022-08-27T07:42:34.942Z,5
2022-08-27T07:43:15.398Z,5
2022-08-27T07:50:41.241Z,5
2022-08-27T07:51:21.520Z,5
2022-08-27T07:52:02.016Z,5
2022-08-27T07:52:42.548Z,5
2022-08-27T07:53:22.976Z,5
2022-08-27T07:54:03.442Z,5
2022-08-27T07:54:43.941Z,5
2022-08-27T07:55:24.496Z,5
2022-08-27T07:56:04.998Z,5
2022-08-27T07:56:54.635Z,5
2022-08-27T08:04:10.724Z,5
2022-08-27T08:04:51.236Z,5
2022-08-27T08:05:31.924Z,5
2022-08-27T08:06:12.433Z,5
2022-08-27T08:06:52.955Z,5
2022-08-27T08:07:33.448Z,5
2022-08-27T08:08:13.913Z,5
2022-08-27T08:08:54.416Z,5
2022-08-27T08:09:34.840Z,5
2022-08-27T08:10:15.367Z,5
2022-08-27T08:17:00.740Z,5
2022-08-27T08:17:41.163Z,5
2022-08-27T08:18:21.739Z,5
2022-08-27T08:19:02.196Z,5
2022-08-27T08:19:50.236Z,5
2022-08-27T08:20:35.824Z,5
2022-08-27T08:21:03.595Z,5
2022-08-27T08:21:44.075Z,5
2022-08-27T08:22:24.555Z,5
2022-08-27T08:23:05.029Z,5
2022-08-27T08:30:31.282Z,5
2022-08-27T08:31:11.042Z,5
2022-08-27T08:31:51.487Z,5
2022-08-27T08:32:32.070Z,5
2022-08-27T08:33:12.498Z,5
2022-08-27T08:33:52.942Z,5
2022-08-27T08:34:33.411Z,5
2022-08-27T08:35:13.893Z,5
2022-08-27T08:35:54.446Z,5
2022-08-27T08:36:34.863Z,5
2022-08-27T08:37:15.368Z,5
2022-08-27T08:44:04.905Z,5
2022-08-27T08:44:41.204Z,5
2022-08-27T08:45:21.943Z,5
2022-08-27T08:46:02.470Z,5
2022-08-27T08:46:42.914Z,5
2022-08-27T08:47:23.409Z,5
2022-08-27T08:48:03.904Z,5
2022-08-27T08:48:44.407Z,5
2022-08-27T08:49:24.905Z,5
2022-08-27T08:50:05.382Z,5
2022-08-27T08:55:30.777Z,5
2022-08-27T08:56:11.140Z,10
2022-08-27T08:56:54.904Z,10
2022-08-27T08:57:32.170Z,10
2022-08-27T08:58:13.303Z,10
2022-08-27T08:58:53.435Z,10
2022-08-27T08:59:33.939Z,10
2022-08-27T09:00:14.440Z,10
2022-08-27T09:00:55.033Z,10
2022-08-27T09:05:00.753Z,10
2022-08-27T09:08:35.562Z,10
2022-08-27T09:09:13.415Z,10
2022-08-27T09:09:53.839Z,10
2022-08-27T09:10:34.401Z,10
2022-08-27T09:11:15.010Z,10
2022-08-27T09:11:55.380Z,10
2022-08-27T09:16:40.560Z,10
2022-08-27T09:17:21.025Z,10
2022-08-27T09:18:02.080Z,10
2022-08-27T09:18:42.512Z,10
2022-08-27T09:19:24.054Z,10
2022-08-27T09:20:03.487Z,10
2022-08-27T09:20:44.074Z,10
2022-08-27T09:21:26.859Z,10
2022-08-27T09:22:05.165Z,10
2022-08-27T09:29:30.827Z,15
2022-08-27T09:30:11.330Z,10
2022-08-27T09:30:51.764Z,10
2022-08-27T09:31:32.327Z,10
2022-08-27T09:32:12.765Z,15
2022-08-27T09:32:53.282Z,15
2022-08-27T09:33:42.084Z,15
2022-08-27T09:34:14.208Z,15
2022-08-27T09:34:54.688Z,15
2022-08-27T09:35:35.168Z,15
2022-08-27T09:41:40.796Z,15
2022-08-27T09:43:01.061Z,15
2022-08-27T09:43:41.333Z,15
2022-08-27T09:44:21.929Z,15
2022-08-27T09:45:02.963Z,15
2022-08-27T09:45:45.103Z,15
2022-08-27T09:54:56.121Z,15
2022-08-27T09:55:45.579Z,15
2022-08-27T09:56:34.876Z,15
2022-08-27T09:57:24.075Z,15
2022-08-27T09:58:13.816Z,15
2022-08-27T09:59:02.808Z,15
2022-08-27T10:02:26.628Z,15
2022-08-27T10:03:07.194Z,20
2022-08-27T10:03:47.829Z,20
2022-08-27T10:04:28.422Z,20
2022-08-27T10:05:08.827Z,20
2022-08-27T10:05:49.238Z,20
2022-08-27T10:06:29.657Z,20
2022-08-27T10:07:10.757Z,20
2022-08-27T10:09:17.565Z,20
2022-08-27T10:09:57.245Z,20
2022-08-27T10:10:38.318Z,20
2022-08-27T10:11:18.762Z,20
2022-08-27T10:11:59.314Z,20
2022-08-27T10:12:39.941Z,20
2022-08-27T10:13:20.426Z,20
2022-08-27T10:17:26.196Z,20
2022-08-27T10:18:07.081Z,20
2022-08-27T10:24:28.262Z,30
2022-08-27T10:25:12.601Z,30
2022-08-27T10:25:53.678Z,30
2022-08-27T10:26:34.791Z,30
2022-08-27T10:29:18.122Z,35
2022-08-27T10:29:59.021Z,35
2022-08-27T10:30:40.297Z,35
2022-08-27T10:34:22.078Z,30
2022-08-27T10:35:02.635Z,30
2022-08-27T10:35:46.757Z,30
2022-08-27T10:36:23.534Z,30
2022-08-27T10:37:05.320Z,30
2022-08-27T10:37:45.158Z,30
2022-08-27T10:38:25.751Z,30
2022-08-27T10:39:47.362Z,30
2022-08-27T10:45:13.107Z,30
2022-08-27T10:45:53.634Z,30
2022-08-27T10:46:34.199Z,30
2022-08-27T10:47:14.849Z,30
2022-08-27T10:47:55.322Z,30
2022-08-27T10:48:36.532Z,25
2022-08-27T10:49:20.974Z,25
2022-08-27T10:55:22.310Z,20
2022-08-27T11:00:14.516Z,30
2022-08-27T11:00:54.980Z,30
2022-08-27T11:01:35.471Z,30
2022-08-27T11:02:59.706Z,35
2022-08-27T11:03:40.261Z,35
2022-08-27T11:04:21.991Z,35
2022-08-27T11:07:12.637Z,35
2022-08-27T11:08:04.811Z,35
2022-08-27T11:08:54.586Z,30
2022-08-27T11:09:42.652Z,30
2022-08-27T11:10:31.757Z,30
2022-08-27T11:12:19.154Z,30
2022-08-27T11:13:25.261Z,25
2022-08-27T11:14:05.700Z,25
2022-08-27T11:14:47.488Z,25
2022-08-27T11:15:28.982Z,25
2022-08-27T11:16:09.904Z,25
2022-08-27T11:21:35.390Z,25
2022-08-27T11:22:17.019Z,25
2022-08-27T11:22:56.339Z,25
2022-08-27T11:23:36.872Z,25
2022-08-27T11:24:17.363Z,25
2022-08-27T11:24:57.836Z,25
2022-08-27T11:25:38.347Z,25
2022-08-27T11:26:19.511Z,25
2022-08-27T11:32:25.056Z,20
2022-08-27T11:33:05.489Z,20
2022-08-27T11:33:46.321Z,20
2022-08-27T11:34:26.747Z,20
2022-08-27T11:35:09.718Z,20
2022-08-27T11:41:15.497Z,20
2022-08-27T11:41:55.853Z,20
2022-08-27T11:42:36.676Z,20
2022-08-27T11:43:17.150Z,25
2022-08-27T11:43:57.620Z,25
2022-08-27T11:44:38.082Z,25
2022-08-27T11:45:18.521Z,25
2022-08-27T11:45:59.275Z,25
2022-08-27T11:46:39.846Z,25
2022-08-27T11:53:16.906Z,20
2022-08-27T11:53:57.734Z,20
2022-08-27T12:33:09.550Z,20
2022-08-27T12:33:50.493Z,20
2022-08-27T12:34:31.570Z,20
2022-08-27T12:36:34.550Z,20
2022-08-27T12:37:16.237Z,25
2022-08-27T12:37:57.901Z,25
2022-08-27T12:38:38.114Z,25
2022-08-27T12:45:03.219Z,30
2022-08-27T12:45:42.708Z,30
2022-08-27T12:46:23.414Z,30
2022-08-27T12:52:28.035Z,30
2022-08-27T12:53:08.494Z,30
2022-08-27T12:53:49.035Z,30
2022-08-27T12:54:30.276Z,25
2022-08-27T12:55:09.969Z,25
2022-08-27T12:55:50.543Z,25
2022-08-27T12:56:31.069Z,25
2022-08-27T12:57:11.597Z,25
2022-08-27T12:57:52.075Z,25
2022-08-27T12:58:32.565Z,25
2022-08-27T13:05:58.040Z,25
2022-08-27T13:06:38.526Z,25
2022-08-27T13:07:19.065Z,25
2022-08-27T13:07:59.503Z,30
2022-08-27T13:08:39.965Z,30
2022-08-27T13:09:20.547Z,30
2022-08-27T13:10:00.987Z,30
2022-08-27T13:10:41.483Z,30
2022-08-27T13:11:21.984Z,30
2022-08-27T13:12:02.492Z,30
2022-08-27T13:19:28.099Z,25
2022-08-27T13:20:08.553Z,25
2022-08-27T13:20:53.133Z,25
2022-08-27T13:21:29.521Z,25
2022-08-27T13:22:50.527Z,25
2022-08-27T13:23:31.001Z,25
2022-08-27T13:24:11.499Z,25
2022-08-27T13:24:51.980Z,25
2022-08-27T13:27:31.181Z,25
2022-08-27T13:28:11.835Z,25
2022-08-27T13:28:52.215Z,25
2022-08-27T13:33:35.730Z,20
2022-08-27T13:34:16.108Z,20
2022-08-27T13:34:56.588Z,20
2022-08-27T13:35:37.084Z,20
2022-08-27T13:36:17.569Z,20
2022-08-27T13:36:58.051Z,20
2022-08-27T13:37:38.586Z,20
2022-08-27T13:38:19.038Z,20
2022-08-27T13:38:59.564Z,20
2022-08-27T13:39:40.047Z,20
2022-08-27T13:45:45.282Z,20
2022-08-27T13:46:25.828Z,20
2022-08-27T13:47:06.275Z,20
2022-08-27T13:47:46.760Z,20
2022-08-27T13:48:27.262Z,20
2022-08-27T13:49:07.760Z,20
2022-08-27T13:49:48.215Z,20
2022-08-27T13:50:28.760Z,20
2022-08-27T13:51:09.212Z,20
2022-08-27T13:51:49.721Z,20
2022-08-27T13:58:35.664Z,20
2022-08-27T13:59:16.175Z,20
2022-08-27T13:59:56.711Z,20
2022-08-27T14:00:37.204Z,20
2022-08-27T14:01:17.777Z,20
2022-08-27T14:01:58.518Z,20
2022-08-27T14:02:38.931Z,20
2022-08-27T14:03:19.372Z,20
2022-08-27T14:03:59.843Z,20
2022-08-27T14:11:25.292Z,25
2022-08-27T14:12:05.810Z,25
2022-08-27T14:12:46.261Z,20
2022-08-27T14:13:26.744Z,20
2022-08-27T14:14:07.230Z,20
2022-08-27T14:14:47.711Z,20
2022-08-27T14:15:28.249Z,20
2022-08-27T14:16:08.765Z,20
2022-08-27T14:16:49.261Z,20
2022-08-27T14:17:29.873Z,20
2022-08-27T14:24:55.189Z,25
2022-08-27T14:25:35.686Z,25
2022-08-27T14:26:16.178Z,25
2022-08-27T14:26:56.653Z,25
2022-08-27T14:27:37.157Z,25
2022-08-27T14:28:17.659Z,20
2022-08-27T14:28:58.144Z,20
2022-08-27T14:29:38.637Z,20
2022-08-27T14:30:19.074Z,20
2022-08-27T14:30:59.587Z,20
2022-08-27T14:31:40.082Z,20
2022-08-27T14:39:05.649Z,20
2022-08-27T14:39:46.174Z,20
2022-08-27T14:40:26.667Z,20
2022-08-27T14:41:07.092Z,20
2022-08-27T14:41:47.571Z,20
2022-08-27T14:43:08.607Z,20
2022-08-27T14:43:49.336Z,20
2022-08-27T14:44:29.551Z,20
2022-08-27T14:45:09.979Z,20
2022-08-27T14:52:35.365Z,15
2022-08-27T14:53:15.875Z,15
2022-08-27T14:53:56.332Z,15
2022-08-27T14:54:36.796Z,15
2022-08-27T14:55:17.325Z,15
2022-08-27T14:55:57.800Z,15
2022-08-27T14:56:38.252Z,15
2022-08-27T14:57:18.783Z,15
2022-08-27T14:57:59.242Z,15
2022-08-27T14:58:39.749Z,15
2022-08-27T14:59:20.240Z,15
2022-08-27T15:06:45.574Z,15
2022-08-27T15:07:26.053Z,15
2022-08-27T15:08:06.582Z,15
2022-08-27T15:08:47.078Z,15
2022-08-27T15:09:27.497Z,15
2022-08-27T15:10:07.982Z,15
2022-08-27T15:10:48.482Z,15
2022-08-27T15:11:28.941Z,15
2022-08-27T15:12:15.078Z,15
2022-08-27T15:19:35.620Z,15
2022-08-27T15:20:19.061Z,15
2022-08-27T15:20:56.574Z,15
2022-08-27T15:21:37.091Z,15
2022-08-27T15:22:17.567Z,15
2022-08-27T15:22:58.088Z,15
2022-08-27T15:23:38.547Z,15
2022-08-27T15:24:19.011Z,15
2022-08-27T15:24:59.550Z,15
2022-08-27T15:25:40.012Z,15
2022-08-27T15:33:05.322Z,15
2022-08-27T15:33:45.937Z,15
2022-08-27T15:34:26.430Z,15
2022-08-27T15:35:06.785Z,15
2022-08-27T15:35:47.243Z,15
2022-08-27T15:36:27.738Z,15
2022-08-27T15:37:08.216Z,15
2022-08-27T15:37:48.683Z,15
2022-08-27T15:38:29.172Z,15
2022-08-27T15:39:09.652Z,15
2022-08-27T15:39:50.132Z,15
2022-08-27T15:47:19.399Z,15
2022-08-27T15:47:55.963Z,15
2022-08-27T15:48:36.489Z,15
2022-08-27T15:49:16.982Z,15
2022-08-27T15:49:57.491Z,15
2022-08-27T15:50:37.925Z,15
2022-08-27T15:51:18.411Z,10
2022-08-27T15:51:59.556Z,10
2022-08-27T15:52:41.147Z,10
2022-08-27T15:53:19.883Z,10
2022-08-27T16:00:45.218Z,10
2022-08-27T16:01:25.712Z,10
2022-08-27T16:02:06.161Z,10
2022-08-27T16:02:46.744Z,10
2022-08-27T16:03:29.871Z,10
2022-08-27T16:04:08.497Z,10
2022-08-27T16:04:49.295Z,10
2022-08-27T16:05:29.475Z,10
2022-08-27T16:06:09.968Z,10
2022-08-27T16:13:35.498Z,10
2022-08-27T16:14:15.963Z,10
2022-08-27T16:14:56.488Z,10
2022-08-27T16:15:36.996Z,5
2022-08-27T16:16:17.473Z,5
2022-08-27T16:16:57.900Z,5
2022-08-27T16:17:38.374Z,5
2022-08-27T16:18:18.856Z,5
2022-08-27T16:18:59.334Z,5
2022-08-27T16:19:39.881Z,5
2022-08-27T16:27:45.562Z,5
2022-08-27T16:28:26.059Z,5
2022-08-27T16:29:06.537Z,5
2022-08-27T16:29:46.997Z,5
2022-08-27T16:30:27.466Z,5
2022-08-27T16:31:09.476Z,5
2022-08-27T16:31:48.429Z,5
2022-08-27T16:32:28.936Z,5
2022-08-27T16:33:09.412Z,5
2022-08-27T16:33:49.933Z,5
2022-08-27T16:39:55.473Z,5
2022-08-27T16:40:35.895Z,5
2022-08-27T16:41:16.346Z,5
2022-08-27T16:41:56.873Z,5
2022-08-27T16:42:37.342Z,5
2022-08-27T16:43:17.858Z,5
2022-08-27T16:43:58.270Z,5
2022-08-27T16:44:38.787Z,5
2022-08-27T16:45:19.320Z,5
2022-08-27T16:45:59.804Z,5
2022-08-27T16:53:25.180Z,5
2022-08-27T16:54:05.674Z,5
2022-08-27T16:54:46.122Z,5
2022-08-27T16:55:26.614Z,5
2022-08-27T16:56:07.087Z,5
2022-08-27T16:56:47.642Z,5
2022-08-27T16:57:28.093Z,5
2022-08-27T16:58:08.605Z,5
2022-08-27T16:58:49.073Z,5
2022-08-27T16:59:29.566Z,5
2022-08-27T17:00:10.015Z,5
2022-08-27T17:07:35.323Z,0
2022-08-27T17:08:15.796Z,0
2022-08-27T17:08:56.307Z,0
2022-08-27T17:09:36.787Z,0
2022-08-27T17:10:17.326Z,0
2022-08-27T17:10:57.900Z,0
2022-08-27T17:11:38.360Z,0
2022-08-27T17:12:59.389Z,0
2022-08-27T17:13:39.851Z,0
2022-08-27T17:21:05.975Z,0
2022-08-27T17:21:46.471Z,0
2022-08-27T17:22:26.935Z,0
2022-08-27T17:23:07.476Z,0
2022-08-27T17:23:47.992Z,0
2022-08-27T17:24:28.461Z,0
2022-08-27T17:25:08.965Z,0
2022-08-27T17:25:49.482Z,0
2022-08-27T17:26:29.963Z,0
2022-08-27T17:33:57.290Z,0
2022-08-27T17:34:35.904Z,0
2022-08-27T17:35:16.418Z,0
2022-08-27T17:35:56.936Z,0
2022-08-27T17:36:37.431Z,0
2022-08-27T17:37:58.403Z,0
2022-08-27T17:38:38.896Z,0
2022-08-27T17:39:19.342Z,0
2022-08-27T17:39:59.900Z,0
2022-08-27T17:47:25.330Z,0
2022-08-27T17:48:06.055Z,0
2022-08-27T17:48:46.333Z,0
2022-08-27T17:49:26.891Z,0
2022-08-27T17:50:07.333Z,0
2022-08-27T17:50:47.812Z,0
2022-08-27T17:51:28.355Z,0
2022-08-27T17:52:08.882Z,0
2022-08-27T17:52:49.410Z,0
2022-08-27T17:53:29.879Z,0
2022-08-27T18:34:54.944Z,0
2022-08-27T18:35:35.338Z,0
2022-08-27T18:36:15.905Z,0
2022-08-27T18:41:39.710Z,0
2022-08-27T18:42:20.197Z,0
2022-08-27T18:43:00.693Z,0
2022-08-27T18:43:41.144Z,0
2022-08-27T18:44:21.613Z,0
2022-08-27T18:45:05.660Z,0
2022-08-27T18:45:42.667Z,0
2022-08-27T18:46:23.112Z,0
2022-08-27T18:47:03.568Z,0
2022-08-27T18:47:44.067Z,0
2022-08-27T18:55:09.378Z,0
2022-08-27T18:57:23.612Z,0
2022-08-27T18:58:03.995Z,0
2022-08-27T18:58:45.163Z,0
2022-08-27T19:00:07.285Z,0
2022-08-27T19:00:48.411Z,0
2022-08-27T19:01:29.694Z,0
2022-08-27T19:02:10.794Z,0
2022-08-27T19:02:52.768Z,0
2022-08-27T19:06:58.305Z,0
2022-08-27T19:07:39.322Z,0
2022-08-27T19:08:21.998Z,0
2022-08-27T19:09:01.247Z,0
2022-08-27T19:09:42.264Z,0
2022-08-27T19:13:07.712Z,0
2022-08-27T19:14:29.684Z,0
2022-08-27T19:15:10.663Z,0
2022-08-27T19:15:51.654Z,0
2022-08-27T19:19:59.725Z,0
2022-08-27T19:20:40.313Z,0
2022-08-27T19:21:21.315Z,0
2022-08-27T19:24:07.690Z,0
2022-08-27T19:24:48.767Z,0
2022-08-27T19:25:30.183Z,0
2022-08-27T19:26:11.935Z,0
2022-08-27T19:30:18.307Z,0
2022-08-27T19:30:59.313Z,0
2022-08-27T19:32:21.929Z,0
2022-08-27T19:35:47.644Z,0
2022-08-27T19:36:28.706Z,0
2022-08-27T19:37:09.739Z,0
2022-08-27T19:37:53.139Z,0
2022-08-27T19:38:31.868Z,0
2022-08-27T19:41:57.900Z,0
2022-08-27T19:42:39.178Z,0
2022-08-27T19:43:20.061Z,0
2022-08-27T19:44:01.308Z,0
2022-08-27T19:47:28.383Z,0
2022-08-27T19:48:09.382Z,0
2022-08-27T19:48:50.424Z,0
2022-08-27T19:52:57.929Z,0
2022-08-27T19:53:40.602Z,0
2022-08-27T19:57:08.048Z,0
2022-08-27T19:57:49.626Z,0
2022-08-27T19:58:30.787Z,0
2022-08-27T20:00:38.811Z,0
2022-08-27T20:01:21.820Z,0
2022-08-27T20:04:08.442Z,0
2022-08-27T20:08:20.519Z,0
2022-08-27T20:09:01.592Z,0
2022-08-27T20:09:41.805Z,0
2022-08-27T20:11:45.760Z,0
2022-08-27T20:12:26.504Z,0
2022-08-27T20:13:07.118Z,0
2022-08-27T20:13:50.306Z,0
2022-08-27T20:14:28.157Z,0
2022-08-27T20:15:08.785Z,0
2022-08-27T20:15:49.257Z,0
2022-08-27T20:16:30.702Z,0
2022-08-27T20:21:38.429Z,0
2022-08-27T20:22:18.945Z,0
2022-08-27T20:22:59.937Z,0
2022-08-27T20:25:03.269Z,0
2022-08-27T20:25:44.659Z,0
2022-08-27T20:26:25.864Z,0
2022-08-27T20:27:06.418Z,0
2022-08-27T20:31:13.279Z,0
2022-08-27T20:31:53.717Z,0
2022-08-27T20:32:34.298Z,0
2022-08-27T20:33:15.076Z,0
2022-08-27T20:33:55.604Z,0
2022-08-27T20:34:36.889Z,0
2022-08-27T20:35:17.268Z,0
2022-08-27T20:39:22.861Z,0
2022-08-27T20:40:03.898Z,0
2022-08-27T20:43:44.108Z,0
2022-08-27T20:44:24.925Z,0
2022-08-27T20:45:08.618Z,0
2022-08-27T20:49:08.595Z,0
2022-08-27T20:49:49.286Z,0
2022-08-27T20:50:29.732Z,0
2022-08-27T20:51:10.485Z,0
2022-08-27T20:52:32.541Z,0
2022-08-27T20:55:59.717Z,0
2022-08-27T20:56:40.644Z,0
2022-08-27T21:00:17.290Z,0
2022-08-27T21:00:57.156Z,0
2022-08-27T21:01:38.537Z,0
2022-08-27T21:02:19.848Z,0
2022-08-27T21:03:00.691Z,0
2022-08-27T21:03:41.169Z,0
2022-08-27T21:04:22.439Z,0
2022-08-27T21:05:03.580Z,0
2022-08-27T21:05:44.674Z,0
2022-08-27T21:11:09.574Z,0
2022-08-27T21:11:49.936Z,0
2022-08-27T21:18:19.573Z,0
2022-08-27T21:19:00.249Z,0
2022-08-27T21:19:40.997Z,0
2022-08-27T21:22:24.375Z,0
2022-08-27T21:23:05.025Z,0
2022-08-27T21:23:45.537Z,0
2022-08-27T21:24:26.071Z,0
2022-08-27T21:25:06.805Z,0
2022-08-27T21:25:47.342Z,0
2022-08-27T21:26:27.797Z,0
2022-08-27T21:27:08.266Z,0
2022-08-27T21:27:48.798Z,0
2022-08-27T21:33:54.117Z,0
2022-08-27T21:34:34.810Z,0
2022-08-27T21:35:15.399Z,0
2022-08-27T21:35:56.032Z,0
2022-08-27T21:36:36.606Z,0
2022-08-27T21:37:17.147Z,0
2022-08-27T21:37:58.000Z,0
2022-08-27T21:38:38.559Z,0
2022-08-27T21:42:33.599Z,0
2022-08-27T21:43:14.019Z,0
2022-08-27T21:43:56.121Z,0
2022-08-27T21:47:57.969Z,0
2022-08-27T21:48:38.422Z,0
2022-08-27T21:49:18.910Z,0
2022-08-27T21:49:59.411Z,0
2022-08-27T21:50:39.860Z,0
2022-08-27T21:51:21.146Z,0
2022-08-27T21:52:01.031Z,0
2022-08-27T21:52:41.495Z,0
2022-08-27T21:53:21.946Z,0
2022-08-27T21:54:02.488Z,0
2022-08-27T21:54:42.945Z,0
2022-08-27T22:02:23.176Z,0
2022-08-27T22:02:48.947Z,0
2022-08-27T22:06:28.398Z,0
2022-08-27T22:07:08.790Z,0
2022-08-27T22:07:49.421Z,0
2022-08-27T22:12:33.046Z,0
2022-08-27T22:13:13.405Z,0
2022-08-27T22:13:53.887Z,0
2022-08-27T22:14:34.398Z,0
2022-08-27T22:15:55.452Z,0
2022-08-27T22:16:36.020Z,0
2022-08-27T22:17:16.444Z,0
2022-08-27T22:17:56.936Z,0
2022-08-27T22:18:37.488Z,0
2022-08-27T22:19:17.918Z,0
2022-08-27T22:26:03.663Z,0
2022-08-27T22:26:44.021Z,0
2022-08-27T22:27:24.561Z,0
2022-08-27T22:28:05.129Z,0
2022-08-27T22:28:45.592Z,0